sensor_id;sensor_type;location;lat;lon;timestamp;pressure;altitude;pressure_sealevel;temperature;humidity
53522;BME280;39398;48.382;9.802;2022-09-09T00:00:54;93617.22;;;14.42;65.26
53522;BME280;39398;48.382;9.802;2022-09-09T00:02:01;93616.88;;;14.39;65.45
53522;BME280;39398;48.382;9.802;2022-09-09T00:03:10;93625.66;;;14.39;65.47
53522;BME280;39398;48.382;9.802;2022-09-09T00:04:19;93617.69;;;14.39;65.03
53522;BME280;39398;48.382;9.802;2022-09-09T00:05:30;93619.97;;;14.36;65.01
53522;BME280;39398;48.382;9.802;2022-09-09T00:06:43;93623.50;;;14.30;65.58
53522;BME280;39398;48.382;9.802;2022-09-09T00:07:48;93618.56;;;14.33;65.45
53522;BME280;39398;48.382;9.802;2022-09-09T00:09:00;93617.34;;;14.29;65.23
53522;BME280;39398;48.382;9.802;2022-09-09T00:10:13;93612.88;;;14.30;65.20
53522;BME280;39398;48.382;9.802;2022-09-09T00:11:24;93617.00;;;14.26;65.42
53522;BME280;39398;48.382;9.802;2022-09-09T00:12:36;93623.59;;;14.23;65.61
53522;BME280;39398;48.382;9.802;2022-09-09T00:13:46;93619.88;;;14.24;65.69
53522;BME280;39398;48.382;9.802;2022-09-09T00:14:52;93620.25;;;14.28;65.71
53522;BME280;39398;48.382;9.802;2022-09-09T00:15:59;93617.22;;;14.24;65.83
53522;BME280;39398;48.382;9.802;2022-09-09T00:17:09;93617.44;;;14.23;65.87
53522;BME280;39398;48.382;9.802;2022-09-09T00:18:18;93616.69;;;14.15;65.86
53522;BME280;39398;48.382;9.802;2022-09-09T00:19:24;93614.94;;;14.09;66.15
53522;BME280;39398;48.382;9.802;2022-09-09T00:20:32;93607.78;;;14.10;66.17
53522;BME280;39398;48.382;9.802;2022-09-09T00:21:39;93611.47;;;14.09;65.87
53522;BME280;39398;48.382;9.802;2022-09-09T00:22:49;93614.84;;;14.16;66.64
53522;BME280;39398;48.382;9.802;2022-09-09T00:23:54;93609.34;;;14.17;65.97
53522;BME280;39398;48.382;9.802;2022-09-09T00:25:02;93599.09;;;14.21;66.08
53522;BME280;39398;48.382;9.802;2022-09-09T00:26:14;93604.75;;;14.25;66.23
53522;BME280;39398;48.382;9.802;2022-09-09T00:27:29;93602.25;;;14.30;65.80
53522;BME280;39398;48.382;9.802;2022-09-09T00:28:37;93604.53;;;14.26;65.54
53522;BME280;39398;48.382;9.802;2022-09-09T00:29:43;93601.66;;;14.28;65.55
53522;BME280;39398;48.382;9.802;2022-09-09T00:30:46;93604.53;;;14.26;65.76
53522;BME280;39398;48.382;9.802;2022-09-09T00:31:48;93604.53;;;14.26;65.72
53522;BME280;39398;48.382;9.802;2022-09-09T00:32:53;93600.84;;;14.27;65.87
53522;BME280;39398;48.382;9.802;2022-09-09T00:34:00;93607.41;;;14.25;66.88
53522;BME280;39398;48.382;9.802;2022-09-09T00:35:14;93599.88;;;14.22;66.05
53522;BME280;39398;48.382;9.802;2022-09-09T00:36:21;93605.66;;;14.18;66.27
53522;BME280;39398;48.382;9.802;2022-09-09T00:37:25;93609.72;;;14.21;66.22
53522;BME280;39398;48.382;9.802;2022-09-09T00:38:32;93611.31;;;14.22;66.41
53522;BME280;39398;48.382;9.802;2022-09-09T00:39:38;93603.34;;;14.22;65.91
53522;BME280;39398;48.382;9.802;2022-09-09T00:40:49;93609.53;;;14.16;66.41
53522;BME280;39398;48.382;9.802;2022-09-09T00:42:02;93607.69;;;14.16;66.60
53522;BME280;39398;48.382;9.802;2022-09-09T00:43:24;93613.41;;;14.20;66.29
53522;BME280;39398;48.382;9.802;2022-09-09T00:44:30;93608.91;;;14.21;66.57
53522;BME280;39398;48.382;9.802;2022-09-09T00:45:47;93608.66;;;14.22;66.63
53522;BME280;39398;48.382;9.802;2022-09-09T00:46:59;93609.47;;;14.23;67.58
53522;BME280;39398;48.382;9.802;2022-09-09T00:48:08;93605.88;;;14.17;66.51
53522;BME280;39398;48.382;9.802;2022-09-09T00:49:18;93605.66;;;14.18;66.27
53522;BME280;39398;48.382;9.802;2022-09-09T00:50:35;93603.44;;;14.15;66.78
53522;BME280;39398;48.382;9.802;2022-09-09T00:51:47;93602.81;;;14.13;66.67
53522;BME280;39398;48.382;9.802;2022-09-09T00:52:59;93597.91;;;14.17;67.12
53522;BME280;39398;48.382;9.802;2022-09-09T00:54:24;93603.66;;;14.14;66.75
53522;BME280;39398;48.382;9.802;2022-09-09T00:55:39;93599.25;;;14.08;67.02
53522;BME280;39398;48.382;9.802;2022-09-09T00:56:46;93603.75;;;14.07;67.02
53522;BME280;39398;48.382;9.802;2022-09-09T00:57:52;93605.47;;;14.13;67.46
53522;BME280;39398;48.382;9.802;2022-09-09T00:59:00;93601.44;;;14.11;67.32
53522;BME280;39398;48.382;9.802;2022-09-09T01:00:21;93605.94;;;14.10;67.16
53522;BME280;39398;48.382;9.802;2022-09-09T01:01:23;93608.75;;;14.15;66.94
53522;BME280;39398;48.382;9.802;2022-09-09T01:02:29;93607.34;;;14.13;67.02
53522;BME280;39398;48.382;9.802;2022-09-09T01:03:35;93604.47;;;14.14;67.05
53522;BME280;39398;48.382;9.802;2022-09-09T01:04:38;93608.66;;;14.04;67.24
53522;BME280;39398;48.382;9.802;2022-09-09T01:05:46;93604.75;;;14.06;68.21
53522;BME280;39398;48.382;9.802;2022-09-09T01:07:00;93607.34;;;14.13;68.60
53522;BME280;39398;48.382;9.802;2022-09-09T01:08:19;93598.34;;;13.95;67.54
53522;BME280;39398;48.382;9.802;2022-09-09T01:09:31;93602.34;;;14.05;69.82
53522;BME280;39398;48.382;9.802;2022-09-09T01:10:41;93599.75;;;13.98;70.02
53522;BME280;39398;48.382;9.802;2022-09-09T01:11:51;93603.69;;;13.70;68.93
53522;BME280;39398;48.382;9.802;2022-09-09T01:13:00;93608.38;;;13.68;69.38
53522;BME280;39398;48.382;9.802;2022-09-09T01:14:24;93605.03;;;13.55;69.85
53522;BME280;39398;48.382;9.802;2022-09-09T01:15:32;93603.13;;;13.43;69.93
53522;BME280;39398;48.382;9.802;2022-09-09T01:16:36;93606.94;;;13.47;70.06
53522;BME280;39398;48.382;9.802;2022-09-09T01:17:46;93607.56;;;13.43;71.18
53522;BME280;39398;48.382;9.802;2022-09-09T01:18:52;93606.09;;;13.54;71.03
53522;BME280;39398;48.382;9.802;2022-09-09T01:20:04;93597.25;;;13.60;70.40
53522;BME280;39398;48.382;9.802;2022-09-09T01:21:16;93606.09;;;13.54;70.14
53522;BME280;39398;48.382;9.802;2022-09-09T01:22:26;93605.03;;;13.55;70.11
53522;BME280;39398;48.382;9.802;2022-09-09T01:23:45;93604.16;;;13.61;70.90
53522;BME280;39398;48.382;9.802;2022-09-09T01:25:18;93593.63;;;13.54;70.56
53522;BME280;39398;48.382;9.802;2022-09-09T01:26:32;93602.31;;;13.36;71.30
53522;BME280;39398;48.382;9.802;2022-09-09T01:27:35;93599.97;;;13.53;71.51
53522;BME280;39398;48.382;9.802;2022-09-09T01:28:38;93599.56;;;13.49;72.42
53522;BME280;39398;48.382;9.802;2022-09-09T01:29:40;93604.06;;;13.49;71.07
53522;BME280;39398;48.382;9.802;2022-09-09T01:30:42;93594.81;;;13.58;72.61
53522;BME280;39398;48.382;9.802;2022-09-09T01:31:52;93600.28;;;13.63;71.89
53522;BME280;39398;48.382;9.802;2022-09-09T01:32:56;93590.22;;;13.72;72.71
53522;BME280;39398;48.382;9.802;2022-09-09T01:33:59;93591.03;;;13.72;73.32
53522;BME280;39398;48.382;9.802;2022-09-09T01:35:02;93593.88;;;13.71;71.27
53522;BME280;39398;48.382;9.802;2022-09-09T01:36:06;93586.22;;;13.63;70.90
53522;BME280;39398;48.382;9.802;2022-09-09T01:37:12;93583.66;;;13.49;71.08
53522;BME280;39398;48.382;9.802;2022-09-09T01:38:14;93589.34;;;13.53;72.09
53522;BME280;39398;48.382;9.802;2022-09-09T01:39:16;93592.00;;;13.53;71.47
53522;BME280;39398;48.382;9.802;2022-09-09T01:40:18;93585.72;;;13.47;72.08
53522;BME280;39398;48.382;9.802;2022-09-09T01:41:19;93587.88;;;13.57;73.71
53522;BME280;39398;48.382;9.802;2022-09-09T01:42:23;93588.25;;;13.61;71.76
53522;BME280;39398;48.382;9.802;2022-09-09T01:43:25;93582.72;;;13.62;72.06
53522;BME280;39398;48.382;9.802;2022-09-09T01:44:28;93584.75;;;13.67;73.35
53522;BME280;39398;48.382;9.802;2022-09-09T01:45:31;93586.78;;;13.65;72.16
53522;BME280;39398;48.382;9.802;2022-09-09T01:46:32;93586.97;;;13.70;73.74
53522;BME280;39398;48.382;9.802;2022-09-09T01:47:34;93586.41;;;13.61;73.76
53522;BME280;39398;48.382;9.802;2022-09-09T01:48:36;93585.84;;;13.59;72.05
53522;BME280;39398;48.382;9.802;2022-09-09T01:49:38;93585.16;;;13.64;73.04
53522;BME280;39398;48.382;9.802;2022-09-09T01:50:39;93581.47;;;13.65;72.84
53522;BME280;39398;48.382;9.802;2022-09-09T01:51:42;93586.22;;;13.63;72.64
53522;BME280;39398;48.382;9.802;2022-09-09T01:52:46;93578.63;;;13.66;71.87
53522;BME280;39398;48.382;9.802;2022-09-09T01:53:49;93579.81;;;13.70;72.10
53522;BME280;39398;48.382;9.802;2022-09-09T01:54:51;93582.53;;;13.64;72.10
53522;BME280;39398;48.382;9.802;2022-09-09T01:56:01;93575.38;;;13.64;71.90
53522;BME280;39398;48.382;9.802;2022-09-09T01:57:10;93577.59;;;13.67;72.56
53522;BME280;39398;48.382;9.802;2022-09-09T01:58:26;93583.31;;;13.64;72.12
53522;BME280;39398;48.382;9.802;2022-09-09T01:59:45;93572.13;;;13.62;71.99
53522;BME280;39398;48.382;9.802;2022-09-09T02:00:54;93577.41;;;13.62;71.78
53522;BME280;39398;48.382;9.802;2022-09-09T02:02:08;93572.72;;;13.64;72.32
53522;BME280;39398;48.382;9.802;2022-09-09T02:03:20;93574.56;;;13.64;72.05
53522;BME280;39398;48.382;9.802;2022-09-09T02:04:35;93575.97;;;13.66;72.08
53522;BME280;39398;48.382;9.802;2022-09-09T02:05:40;93574.72;;;13.69;72.08
53522;BME280;39398;48.382;9.802;2022-09-09T02:06:44;93576.97;;;13.65;71.79
53522;BME280;39398;48.382;9.802;2022-09-09T02:07:48;93576.19;;;13.65;71.98
53522;BME280;39398;48.382;9.802;2022-09-09T02:08:52;93575.59;;;13.63;72.28
53522;BME280;39398;48.382;9.802;2022-09-09T02:10:00;93573.31;;;13.66;71.65
53522;BME280;39398;48.382;9.802;2022-09-09T02:11:06;93570.66;;;13.66;71.47
53522;BME280;39398;48.382;9.802;2022-09-09T02:12:11;93569.19;;;13.70;71.81
53522;BME280;39398;48.382;9.802;2022-09-09T02:13:16;93570.88;;;13.65;71.75
53522;BME280;39398;48.382;9.802;2022-09-09T02:14:23;93565.00;;;13.63;71.70
53522;BME280;39398;48.382;9.802;2022-09-09T02:15:29;93581.16;;;13.55;72.01
53522;BME280;39398;48.382;9.802;2022-09-09T02:16:35;93570.66;;;13.66;72.84
53522;BME280;39398;48.382;9.802;2022-09-09T02:17:40;93573.31;;;13.66;71.46
53522;BME280;39398;48.382;9.802;2022-09-09T02:18:44;93566.78;;;13.69;71.42
53522;BME280;39398;48.382;9.802;2022-09-09T02:19:52;93570.22;;;13.69;71.56
53522;BME280;39398;48.382;9.802;2022-09-09T02:20:56;93574.94;;;13.67;71.55
53522;BME280;39398;48.382;9.802;2022-09-09T02:21:59;93576.72;;;13.73;71.45
53522;BME280;39398;48.382;9.802;2022-09-09T02:23:01;93570.59;;;13.73;71.35
53522;BME280;39398;48.382;9.802;2022-09-09T02:24:05;93573.91;;;13.68;72.40
53522;BME280;39398;48.382;9.802;2022-09-09T02:25:10;93575.84;;;13.80;74.82
53522;BME280;39398;48.382;9.802;2022-09-09T02:26:14;93579.63;;;13.65;73.11
53522;BME280;39398;48.382;9.802;2022-09-09T02:27:18;93586.66;;;13.60;73.55
53522;BME280;39398;48.382;9.802;2022-09-09T02:28:20;93580.38;;;13.54;72.98
53522;BME280;39398;48.382;9.802;2022-09-09T02:29:27;93588.44;;;13.66;73.72
53522;BME280;39398;48.382;9.802;2022-09-09T02:30:32;93577.41;;;13.62;72.86
53522;BME280;39398;48.382;9.802;2022-09-09T02:31:36;93587.75;;;13.70;72.39
53522;BME280;39398;48.382;9.802;2022-09-09T02:32:39;93580.03;;;13.69;72.45
53522;BME280;39398;48.382;9.802;2022-09-09T02:33:45;93582.53;;;13.64;72.14
53522;BME280;39398;48.382;9.802;2022-09-09T02:34:52;93578.69;;;13.60;71.82
53522;BME280;39398;48.382;9.802;2022-09-09T02:35:56;93571.38;;;13.55;71.84
53522;BME280;39398;48.382;9.802;2022-09-09T02:37:00;93578.53;;;13.55;72.16
53522;BME280;39398;48.382;9.802;2022-09-09T02:38:06;93579.31;;;13.55;72.05
53522;BME280;39398;48.382;9.802;2022-09-09T02:39:09;93585.44;;;13.56;72.20
53522;BME280;39398;48.382;9.802;2022-09-09T02:40:13;93582.97;;;13.61;72.90
53522;BME280;39398;48.382;9.802;2022-09-09T02:41:16;93581.41;;;13.53;72.32
53522;BME280;39398;48.382;9.802;2022-09-09T02:42:18;93585.00;;;13.59;72.02
53522;BME280;39398;48.382;9.802;2022-09-09T02:43:19;93580.91;;;13.63;72.25
53522;BME280;39398;48.382;9.802;2022-09-09T02:44:21;93582.53;;;13.64;71.85
53522;BME280;39398;48.382;9.802;2022-09-09T02:45:25;93584.50;;;13.68;71.70
53522;BME280;39398;48.382;9.802;2022-09-09T02:47:04;93576.41;;;13.63;71.61
53522;BME280;39398;48.382;9.802;2022-09-09T02:48:14;93576.84;;;13.60;71.73
53522;BME280;39398;48.382;9.802;2022-09-09T02:49:25;93578.53;;;13.55;72.10
53522;BME280;39398;48.382;9.802;2022-09-09T02:50:33;93581.06;;;13.43;72.25
53522;BME280;39398;48.382;9.802;2022-09-09T02:51:40;93583.19;;;13.34;72.81
53522;BME280;39398;48.382;9.802;2022-09-09T02:52:52;93586.03;;;13.33;72.98
53522;BME280;39398;48.382;9.802;2022-09-09T02:54:01;93583.34;;;13.39;72.60
53522;BME280;39398;48.382;9.802;2022-09-09T02:55:18;93589.06;;;13.36;72.64
53522;BME280;39398;48.382;9.802;2022-09-09T02:56:23;93592.09;;;13.40;72.40
53522;BME280;39398;48.382;9.802;2022-09-09T02:57:28;93586.22;;;13.38;72.96
53522;BME280;39398;48.382;9.802;2022-09-09T02:58:31;93585.66;;;13.29;73.67
53522;BME280;39398;48.382;9.802;2022-09-09T02:59:33;93587.47;;;13.35;73.91
53522;BME280;39398;48.382;9.802;2022-09-09T03:00:37;93588.31;;;13.29;73.92
53522;BME280;39398;48.382;9.802;2022-09-09T03:01:40;93585.63;;;13.36;73.56
53522;BME280;39398;48.382;9.802;2022-09-09T03:02:41;93595.59;;;13.40;72.99
53522;BME280;39398;48.382;9.802;2022-09-09T03:03:43;93590.47;;;13.39;73.52
53522;BME280;39398;48.382;9.802;2022-09-09T03:04:44;93589.88;;;13.37;73.32
53522;BME280;39398;48.382;9.802;2022-09-09T03:05:46;93591.28;;;13.39;73.59
53522;BME280;39398;48.382;9.802;2022-09-09T03:06:48;93585.94;;;13.46;73.21
53522;BME280;39398;48.382;9.802;2022-09-09T03:07:49;93582.34;;;13.40;73.15
53522;BME280;39398;48.382;9.802;2022-09-09T03:08:51;93582.09;;;13.42;73.03
53522;BME280;39398;48.382;9.802;2022-09-09T03:09:52;93584.75;;;13.42;73.06
53522;BME280;39398;48.382;9.802;2022-09-09T03:10:54;93578.59;;;13.48;72.98
53522;BME280;39398;48.382;9.802;2022-09-09T03:11:56;93574.47;;;13.52;73.18
53522;BME280;39398;48.382;9.802;2022-09-09T03:12:57;93571.44;;;13.48;73.33
53522;BME280;39398;48.382;9.802;2022-09-09T03:13:59;93578.16;;;13.51;72.47
53522;BME280;39398;48.382;9.802;2022-09-09T03:15:00;93579.94;;;13.57;72.30
53522;BME280;39398;48.382;9.802;2022-09-09T03:16:04;93577.66;;;13.61;72.10
53522;BME280;39398;48.382;9.802;2022-09-09T03:17:05;93572.72;;;13.64;71.63
53522;BME280;39398;48.382;9.802;2022-09-09T03:18:07;93577.16;;;13.70;71.55
53522;BME280;39398;48.382;9.802;2022-09-09T03:19:09;93576.72;;;13.73;71.24
53522;BME280;39398;48.382;9.802;2022-09-09T03:20:10;93583.00;;;13.79;70.98
53522;BME280;39398;48.382;9.802;2022-09-09T03:21:12;93570.91;;;13.83;70.75
53522;BME280;39398;48.382;9.802;2022-09-09T03:22:13;93579.22;;;13.87;70.75
53522;BME280;39398;48.382;9.802;2022-09-09T03:23:14;93585.13;;;13.89;70.38
53522;BME280;39398;48.382;9.802;2022-09-09T03:24:16;93583.22;;;13.96;70.34
53522;BME280;39398;48.382;9.802;2022-09-09T03:25:18;93581.00;;;13.93;70.07
53522;BME280;39398;48.382;9.802;2022-09-09T03:26:19;93588.53;;;13.96;69.83
53522;BME280;39398;48.382;9.802;2022-09-09T03:27:21;93587.94;;;13.94;70.12
53522;BME280;39398;48.382;9.802;2022-09-09T03:28:22;93589.94;;;13.99;70.02
53522;BME280;39398;48.382;9.802;2022-09-09T03:29:24;93593.75;;;14.03;70.14
53522;BME280;39398;48.382;9.802;2022-09-09T03:30:26;93599.69;;;14.05;70.06
53522;BME280;39398;48.382;9.802;2022-09-09T03:31:30;93599.31;;;14.01;70.17
53522;BME280;39398;48.382;9.802;2022-09-09T03:32:31;93596.41;;;14.03;70.28
53522;BME280;39398;48.382;9.802;2022-09-09T03:33:33;93599.75;;;13.98;70.73
53522;BME280;39398;48.382;9.802;2022-09-09T03:34:34;93591.56;;;14.00;70.32
53522;BME280;39398;48.382;9.802;2022-09-09T03:35:36;93597.81;;;14.05;70.69
53522;BME280;39398;48.382;9.802;2022-09-09T03:36:37;93597.22;;;14.03;70.28
53522;BME280;39398;48.382;9.802;2022-09-09T03:37:39;93600.25;;;14.07;70.28
53522;BME280;39398;48.382;9.802;2022-09-09T03:38:40;93604.75;;;14.06;70.92
53522;BME280;39398;48.382;9.802;2022-09-09T03:39:42;93601.28;;;14.06;71.75
53522;BME280;39398;48.382;9.802;2022-09-09T03:40:49;93606.00;;;14.04;72.82
53522;BME280;39398;48.382;9.802;2022-09-09T03:41:51;93599.16;;;13.96;73.03
53522;BME280;39398;48.382;9.802;2022-09-09T03:42:52;93593.84;;;13.96;73.18
53522;BME280;39398;48.382;9.802;2022-09-09T03:43:54;93601.13;;;14.01;73.70
53522;BME280;39398;48.382;9.802;2022-09-09T03:44:55;93603.84;;;13.94;73.69
53522;BME280;39398;48.382;9.802;2022-09-09T03:45:57;93608.94;;;13.95;75.00
53522;BME280;39398;48.382;9.802;2022-09-09T03:47:00;93597.81;;;13.87;75.27
53522;BME280;39398;48.382;9.802;2022-09-09T03:48:02;93600.53;;;13.80;75.81
53522;BME280;39398;48.382;9.802;2022-09-09T03:49:03;93598.59;;;13.69;76.14
53522;BME280;39398;48.382;9.802;2022-09-09T03:50:05;93594.31;;;13.43;77.25
53522;BME280;39398;48.382;9.802;2022-09-09T03:51:07;93593.81;;;13.34;77.02
53522;BME280;39398;48.382;9.802;2022-09-09T03:52:08;93593.44;;;13.31;77.84
53522;BME280;39398;48.382;9.802;2022-09-09T03:53:10;93594.97;;;13.38;77.94
53522;BME280;39398;48.382;9.802;2022-09-09T03:54:11;93594.97;;;13.38;78.01
53522;BME280;39398;48.382;9.802;2022-09-09T03:55:13;93589.31;;;13.35;78.35
53522;BME280;39398;48.382;9.802;2022-09-09T03:56:14;93590.53;;;13.32;78.40
53522;BME280;39398;48.382;9.802;2022-09-09T03:57:16;93580.91;;;13.38;78.63
53522;BME280;39398;48.382;9.802;2022-09-09T03:58:18;93580.13;;;13.37;78.32
53522;BME280;39398;48.382;9.802;2022-09-09T03:59:19;93590.97;;;13.29;78.71
53522;BME280;39398;48.382;9.802;2022-09-09T04:00:21;93594.06;;;13.26;79.20
53522;BME280;39398;48.382;9.802;2022-09-09T04:01:22;93600.78;;;13.22;78.90
53522;BME280;39398;48.382;9.802;2022-09-09T04:02:25;93603.84;;;13.25;79.03
53522;BME280;39398;48.382;9.802;2022-09-09T04:03:28;93607.19;;;13.39;79.08
53522;BME280;39398;48.382;9.802;2022-09-09T04:04:29;93608.91;;;13.34;79.52
53522;BME280;39398;48.382;9.802;2022-09-09T04:05:31;93604.13;;;13.42;79.48
53522;BME280;39398;48.382;9.802;2022-09-09T04:06:32;93602.06;;;13.44;78.84
53522;BME280;39398;48.382;9.802;2022-09-09T04:07:34;93607.56;;;13.43;78.77
53522;BME280;39398;48.382;9.802;2022-09-09T04:08:36;93596.41;;;13.41;78.77
53522;BME280;39398;48.382;9.802;2022-09-09T04:09:37;93603.22;;;13.23;79.69
53522;BME280;39398;48.382;9.802;2022-09-09T04:10:39;93601.16;;;13.32;79.87
53522;BME280;39398;48.382;9.802;2022-09-09T04:11:40;93600.16;;;13.26;79.78
53522;BME280;39398;48.382;9.802;2022-09-09T04:12:42;93603.13;;;13.12;80.38
53522;BME280;39398;48.382;9.802;2022-09-09T04:13:49;93602.72;;;13.08;81.45
53522;BME280;39398;48.382;9.802;2022-09-09T04:14:50;93611.81;;;13.19;81.78
53522;BME280;39398;48.382;9.802;2022-09-09T04:15:52;93607.69;;;13.30;81.62
53522;BME280;39398;48.382;9.802;2022-09-09T04:16:55;93609.75;;;13.28;81.97
53522;BME280;39398;48.382;9.802;2022-09-09T04:17:58;93603.38;;;13.35;81.44
53522;BME280;39398;48.382;9.802;2022-09-09T04:18:59;93616.44;;;13.30;82.34
53522;BME280;39398;48.382;9.802;2022-09-09T04:20:01;93609.72;;;13.34;82.03
53522;BME280;39398;48.382;9.802;2022-09-09T04:21:03;93613.47;;;13.13;83.00
53522;BME280;39398;48.382;9.802;2022-09-09T04:22:04;93616.38;;;13.12;83.30
53522;BME280;39398;48.382;9.802;2022-09-09T04:23:06;93611.44;;;13.15;83.58
53522;BME280;39398;48.382;9.802;2022-09-09T04:24:08;93614.84;;;13.22;83.92
53522;BME280;39398;48.382;9.802;2022-09-09T04:25:09;93606.69;;;13.31;82.95
53522;BME280;39398;48.382;9.802;2022-09-09T04:26:11;93601.81;;;13.28;82.44
53522;BME280;39398;48.382;9.802;2022-09-09T04:27:12;93609.97;;;13.19;82.79
53522;BME280;39398;48.382;9.802;2022-09-09T04:28:14;93608.94;;;13.20;82.86
53522;BME280;39398;48.382;9.802;2022-09-09T04:29:15;93612.19;;;13.22;83.37
53522;BME280;39398;48.382;9.802;2022-09-09T04:30:17;93605.59;;;13.38;82.75
53522;BME280;39398;48.382;9.802;2022-09-09T04:31:20;93608.19;;;13.45;82.69
53522;BME280;39398;48.382;9.802;2022-09-09T04:32:23;93604.41;;;13.34;82.77
53522;BME280;39398;48.382;9.802;2022-09-09T04:33:26;93603.84;;;13.51;82.87
53522;BME280;39398;48.382;9.802;2022-09-09T04:34:28;93606.72;;;13.49;82.33
53522;BME280;39398;48.382;9.802;2022-09-09T04:35:30;93610.78;;;13.52;83.39
53522;BME280;39398;48.382;9.802;2022-09-09T04:36:32;93606.88;;;13.54;83.02
53522;BME280;39398;48.382;9.802;2022-09-09T04:37:33;93608.13;;;13.52;82.74
53522;BME280;39398;48.382;9.802;2022-09-09T04:38:35;93608.94;;;13.52;82.05
53522;BME280;39398;48.382;9.802;2022-09-09T04:39:36;93609.31;;;13.56;81.50
53522;BME280;39398;48.382;9.802;2022-09-09T04:40:38;93608.78;;;13.47;81.97
53522;BME280;39398;48.382;9.802;2022-09-09T04:41:39;93610.03;;;13.44;82.69
53522;BME280;39398;48.382;9.802;2022-09-09T04:42:41;93597.38;;;13.46;82.17
53522;BME280;39398;48.382;9.802;2022-09-09T04:43:42;93609.22;;;13.44;82.30
53522;BME280;39398;48.382;9.802;2022-09-09T04:44:44;93609.47;;;13.36;82.64
53522;BME280;39398;48.382;9.802;2022-09-09T04:45:47;93610.22;;;13.43;82.77
53522;BME280;39398;48.382;9.802;2022-09-09T04:46:49;93612.88;;;13.43;82.91
53522;BME280;39398;48.382;9.802;2022-09-09T04:47:50;93609.66;;;13.41;82.76
53522;BME280;39398;48.382;9.802;2022-09-09T04:48:53;93611.25;;;13.42;83.26
53522;BME280;39398;48.382;9.802;2022-09-09T04:49:55;93611.06;;;13.43;83.17
53522;BME280;39398;48.382;9.802;2022-09-09T04:50:57;93609.00;;;13.45;82.87
53522;BME280;39398;48.382;9.802;2022-09-09T04:51:59;93609.41;;;13.42;82.89
53522;BME280;39398;48.382;9.802;2022-09-09T04:53:01;93612.31;;;13.41;83.95
53522;BME280;39398;48.382;9.802;2022-09-09T04:54:02;93609.22;;;13.44;83.68
53522;BME280;39398;48.382;9.802;2022-09-09T04:55:05;93612.31;;;13.41;83.39
53522;BME280;39398;48.382;9.802;2022-09-09T04:56:08;93605.16;;;13.41;83.42
53522;BME280;39398;48.382;9.802;2022-09-09T04:57:10;93604.78;;;13.38;83.93
53522;BME280;39398;48.382;9.802;2022-09-09T04:58:18;93604.41;;;13.34;83.80
53522;BME280;39398;48.382;9.802;2022-09-09T04:59:19;93603.53;;;13.40;83.66
53522;BME280;39398;48.382;9.802;2022-09-09T05:00:21;93607.19;;;13.39;83.65
53522;BME280;39398;48.382;9.802;2022-09-09T05:01:23;93611.06;;;13.43;84.11
53522;BME280;39398;48.382;9.802;2022-09-09T05:02:24;93608.84;;;13.40;84.53
53522;BME280;39398;48.382;9.802;2022-09-09T05:03:31;93605.16;;;13.41;84.01
53522;BME280;39398;48.382;9.802;2022-09-09T05:04:34;93607.19;;;13.39;83.53
53522;BME280;39398;48.382;9.802;2022-09-09T05:05:36;93611.00;;;13.25;84.34
53522;BME280;39398;48.382;9.802;2022-09-09T05:06:37;93610.72;;;13.33;84.36
53522;BME280;39398;48.382;9.802;2022-09-09T05:07:39;93615.88;;;13.28;84.82
53522;BME280;39398;48.382;9.802;2022-09-09T05:08:41;93610.50;;;13.35;84.55
53522;BME280;39398;48.382;9.802;2022-09-09T05:09:43;93612.72;;;13.38;84.45
53522;BME280;39398;48.382;9.802;2022-09-09T05:10:44;93608.63;;;13.42;85.05
53522;BME280;39398;48.382;9.802;2022-09-09T05:11:46;93616.41;;;13.37;84.42
53522;BME280;39398;48.382;9.802;2022-09-09T05:12:52;93615.97;;;13.40;84.83
53522;BME280;39398;48.382;9.802;2022-09-09T05:13:54;93614.56;;;13.37;84.76
53522;BME280;39398;48.382;9.802;2022-09-09T05:14:56;93610.47;;;13.41;84.48
53522;BME280;39398;48.382;9.802;2022-09-09T05:15:57;93616.94;;;13.45;84.70
53522;BME280;39398;48.382;9.802;2022-09-09T05:16:59;93611.63;;;13.45;84.37
53522;BME280;39398;48.382;9.802;2022-09-09T05:18:01;93613.31;;;13.40;85.16
53522;BME280;39398;48.382;9.802;2022-09-09T05:19:03;93621.88;;;13.42;84.89
53522;BME280;39398;48.382;9.802;2022-09-09T05:20:06;93611.88;;;13.44;84.73
53522;BME280;39398;48.382;9.802;2022-09-09T05:21:14;93614.28;;;13.45;84.50
53522;BME280;39398;48.382;9.802;2022-09-09T05:22:18;93611.81;;;13.51;85.05
53522;BME280;39398;48.382;9.802;2022-09-09T05:23:20;93615.75;;;13.41;85.18
53522;BME280;39398;48.382;9.802;2022-09-09T05:24:21;93614.56;;;13.37;85.75
53522;BME280;39398;48.382;9.802;2022-09-09T05:25:23;93615.59;;;13.36;86.24
53522;BME280;39398;48.382;9.802;2022-09-09T05:26:25;93621.97;;;13.29;86.60
53522;BME280;39398;48.382;9.802;2022-09-09T05:27:26;93616.19;;;13.38;87.00
53522;BME280;39398;48.382;9.802;2022-09-09T05:28:28;93620.56;;;13.26;86.59
53522;BME280;39398;48.382;9.802;2022-09-09T05:29:30;93622.81;;;13.22;87.64
53522;BME280;39398;48.382;9.802;2022-09-09T05:30:31;93621.59;;;13.25;87.77
53522;BME280;39398;48.382;9.802;2022-09-09T05:31:32;93616.19;;;13.38;87.31
53522;BME280;39398;48.382;9.802;2022-09-09T05:32:34;93618.91;;;13.32;87.09
53522;BME280;39398;48.382;9.802;2022-09-09T05:33:36;93630.88;;;13.41;87.15
53522;BME280;39398;48.382;9.802;2022-09-09T05:34:37;93620.25;;;13.41;87.09
53522;BME280;39398;48.382;9.802;2022-09-09T05:35:40;93622.47;;;13.44;87.14
53522;BME280;39398;48.382;9.802;2022-09-09T05:36:41;93617.59;;;13.41;86.75
53522;BME280;39398;48.382;9.802;2022-09-09T05:37:43;93624.91;;;13.45;87.10
53522;BME280;39398;48.382;9.802;2022-09-09T05:38:44;93623.66;;;13.48;86.87
53522;BME280;39398;48.382;9.802;2022-09-09T05:39:46;93622.72;;;13.36;87.49
53522;BME280;39398;48.382;9.802;2022-09-09T05:40:48;93632.31;;;13.37;88.13
53522;BME280;39398;48.382;9.802;2022-09-09T05:41:49;93633.38;;;13.29;87.74
53522;BME280;39398;48.382;9.802;2022-09-09T05:42:51;93628.31;;;13.28;88.34
53522;BME280;39398;48.382;9.802;2022-09-09T05:43:52;93617.38;;;13.42;89.16